Armstrong Creek, WI

8:44 AM CDT on September 01, 2014 (GMT -0500)
Silver Lake, Laona, WI | Change Station
CLOSE
Current Station
Personal Weather Station
Location: Laona, WI
Elevation: 1581 ft
Nearby Weather Stations

Elev 1581 ft 45.55 °N, 88.72 °W | Updated 1 second ago

Overcast
Overcast
65.3 °F
Feels Like 65.3 °F
N
2.5
Wind Variable Wind from West
Gusts 2.5 mph

Today
High -- | Low -- °F
--% Chance of Precip.
Yesterday
High -- | Low -- °F
Precip. -- in
6:14 AM 7:31 PM
Waxing Crescent, 41% visible
Pressure 29.64 in
Visibility 7.0 miles
Clouds Few 700 ft
Scattered Clouds 12000 ft
Dew Point 64 °F
Humidity 97%
Rainfall 0.00 in
Snow Depth Not available.
UV 1 out of 12
Pollen 3.90 out of 12
Air Quality Not available.
Flu Activity Not available.
SPECI KIMT 011243Z AUTO 15007KT 7SM FEW007 SCT120 21/18 A2964 RMK AO2 T02060183 TSNO $

More Conditions Fewer Conditions

Pressure 29.64 in
Visibility 7.0 miles
Clouds Few 700 ft
Scattered Clouds 12000 ft
Dew Point 64 °F
Humidity 97%
Rainfall 0.00 in
Snow Depth Not available.
UV 1 out of 12
Pollen 3.90 out of 12
Air Quality Not available.
Flu Activity Not available.
SPECI KIMT 011243Z AUTO 15007KT 7SM FEW007 SCT120 21/18 A2964 RMK AO2 T02060183 TSNO $

More Conditions Fewer Conditions

Nowcast | as of 8:35 am CDT on September 1, 2014

wet weather expected for Labor Day morning... Showers were fairly widespread across Wisconsin this morning. A few thunderstorms were also embedded within the large area of showers. The rain is not expected to be continuous in eastern Wisconsin...though virtually all of the east will have showers at times this morning. Steadier and heavier rains were back over west-central Wisconsin...and will shift into central and north-central Wisconsin by mid-morning. Most of central and north-central Wisconsin will receive a pretty thorough soaking by late morning. Clouds and the rain will keep temperatures from rising much. Readings will remain mainly in the 60s across central and north-central Wisconsin...while temperatures in the east hold in the upper 60s to lower 70s.

×

10-Day Weather Forecast

Almanac

Astronomy

Sep. 01, 2014 Rise Set
Actual Time 6:14 AM CDT 7:31 PM CDT
Civil Twilight 5:44 AM CDT 8:02 PM CDT
Nautical Twilight 5:07 AM CDT 8:39 PM CDT
Astronomical Twilight 4:27 AM CDT 9:18 PM CDT
Moon 1:21 PM CDT 11:11 PM CDT
Length of Visible Light 14h 18m
Length of Day
13h 16m
Tomorrow will be 3m 5s shorter.
Waxing Crescent, 41% of the Moon is Illuminated
Today
Waxing Crescent
Sep 2
First Quarter
Sep 8
Full
Sep 15
Last Quarter
Sep 24
New

Today's Extremes

State Highs State Lows

Community

WunderPhotos

Upload Photos

1,749,222 photos uploaded!

Nearby

Snow Depth

Station Depth Elevation
No new snow has been reported.

Earthquake Activity

City Distance Mag. Time & Date
No recent earthquake activity has been reported nearby.
Minimum magnitude displayed is 2.5.

Coastal Water Temperatures

Place Temperature
No Stations Reporting

Nearby Weather Stations